Terminal Aerodrome Forecast
Issued by NWS

Home | Current Version | Previous Version | Text Only | Print | Product List | Glossary Off
Versions: 1 2 3 4 5 6 7 8 9 10 11 12 13 14 15 16 17 18 19 20 21

302
FTUS43 KABR 172140 AAC
TAFPIR
TAF AMD
KPIR 172140Z 1722/1818 VRB05KT P6SM VCTS SCT080CB
     FM172300 19008KT P6SM SCT200
     FM180200 10009KT P6SM BKN200
     FM181100 05009KT P6SM VCTS BKN150CB
     FM181300 04013KT P6SM BKN100=

USA.gov is the U.S. government's official web portal to all federal, state and local government web resources and services.